sensor_id;sensor_type;location;lat;lon;timestamp;P1;durP1;ratioP1;P2;durP2;ratioP2
10295;SDS011;5193;51.032;6.356;2023-03-03T00:01:08;39.37;;;21.97;;
10295;SDS011;5193;51.032;6.356;2023-03-03T00:03:34;41.83;;;22.80;;
10295;SDS011;5193;51.032;6.356;2023-03-03T00:06:00;44.73;;;25.07;;
10295;SDS011;5193;51.032;6.356;2023-03-03T00:08:28;38.00;;;22.23;;
10295;SDS011;5193;51.032;6.356;2023-03-03T00:10:54;40.87;;;24.87;;
10295;SDS011;5193;51.032;6.356;2023-03-03T00:13:20;37.53;;;22.50;;
10295;SDS011;5193;51.032;6.356;2023-03-03T00:15:48;43.17;;;23.87;;
10295;SDS011;5193;51.032;6.356;2023-03-03T00:20:47;40.63;;;21.73;;
10295;SDS011;5193;51.032;6.356;2023-03-03T00:23:23;37.23;;;21.30;;
10295;SDS011;5193;51.032;6.356;2023-03-03T00:25:53;42.67;;;23.70;;
10295;SDS011;5193;51.032;6.356;2023-03-03T00:28:24;39.67;;;22.53;;
10295;SDS011;5193;51.032;6.356;2023-03-03T00:30:54;43.47;;;22.67;;
10295;SDS011;5193;51.032;6.356;2023-03-03T00:33:24;43.27;;;24.03;;
10295;SDS011;5193;51.032;6.356;2023-03-03T00:38:55;41.27;;;22.57;;
10295;SDS011;5193;51.032;6.356;2023-03-03T00:41:35;47.40;;;25.03;;
10295;SDS011;5193;51.032;6.356;2023-03-03T00:44:02;51.73;;;27.10;;
10295;SDS011;5193;51.032;6.356;2023-03-03T00:46:52;49.33;;;26.00;;
10295;SDS011;5193;51.032;6.356;2023-03-03T00:49:21;53.87;;;30.83;;
10295;SDS011;5193;51.032;6.356;2023-03-03T00:51:50;48.60;;;27.17;;
10295;SDS011;5193;51.032;6.356;2023-03-03T00:54:17;54.00;;;27.83;;
10295;SDS011;5193;51.032;6.356;2023-03-03T00:56:43;50.57;;;26.17;;
10295;SDS011;5193;51.032;6.356;2023-03-03T00:59:08;49.50;;;24.83;;
10295;SDS011;5193;51.032;6.356;2023-03-03T01:01:34;51.73;;;26.80;;
10295;SDS011;5193;51.032;6.356;2023-03-03T01:04:00;54.57;;;27.80;;
10295;SDS011;5193;51.032;6.356;2023-03-03T01:06:25;59.03;;;28.30;;
10295;SDS011;5193;51.032;6.356;2023-03-03T01:08:51;57.00;;;28.27;;
10295;SDS011;5193;51.032;6.356;2023-03-03T01:11:22;48.07;;;25.57;;
10295;SDS011;5193;51.032;6.356;2023-03-03T01:13:50;55.70;;;27.87;;
10295;SDS011;5193;51.032;6.356;2023-03-03T01:16:17;55.27;;;29.57;;
10295;SDS011;5193;51.032;6.356;2023-03-03T01:18:43;56.57;;;28.03;;
10295;SDS011;5193;51.032;6.356;2023-03-03T01:21:09;60.30;;;29.77;;
10295;SDS011;5193;51.032;6.356;2023-03-03T01:23:35;58.17;;;26.40;;
10295;SDS011;5193;51.032;6.356;2023-03-03T01:26:02;60.73;;;29.00;;
10295;SDS011;5193;51.032;6.356;2023-03-03T01:28:28;65.33;;;31.20;;
10295;SDS011;5193;51.032;6.356;2023-03-03T01:30:53;66.67;;;32.10;;
10295;SDS011;5193;51.032;6.356;2023-03-03T01:33:23;64.17;;;31.83;;
10295;SDS011;5193;51.032;6.356;2023-03-03T01:35:49;56.60;;;27.00;;
10295;SDS011;5193;51.032;6.356;2023-03-03T01:38:14;72.33;;;35.63;;
10295;SDS011;5193;51.032;6.356;2023-03-03T01:40:40;73.97;;;33.47;;
10295;SDS011;5193;51.032;6.356;2023-03-03T01:43:06;80.30;;;35.20;;
10295;SDS011;5193;51.032;6.356;2023-03-03T01:48:21;91.60;;;42.33;;
10295;SDS011;5193;51.032;6.356;2023-03-03T01:53:27;96.97;;;42.30;;
10295;SDS011;5193;51.032;6.356;2023-03-03T01:55:58;90.63;;;42.00;;
10295;SDS011;5193;51.032;6.356;2023-03-03T02:00:54;80.40;;;34.50;;
10295;SDS011;5193;51.032;6.356;2023-03-03T02:03:24;92.93;;;43.93;;
10295;SDS011;5193;51.032;6.356;2023-03-03T02:05:51;81.60;;;37.07;;
10295;SDS011;5193;51.032;6.356;2023-03-03T02:08:22;99.87;;;43.00;;
10295;SDS011;5193;51.032;6.356;2023-03-03T02:10:52;94.13;;;42.17;;
10295;SDS011;5193;51.032;6.356;2023-03-03T02:13:19;97.73;;;45.53;;
10295;SDS011;5193;51.032;6.356;2023-03-03T02:15:45;94.10;;;41.97;;
10295;SDS011;5193;51.032;6.356;2023-03-03T02:18:14;97.20;;;44.97;;
10295;SDS011;5193;51.032;6.356;2023-03-03T02:23:34;96.43;;;42.63;;
10295;SDS011;5193;51.032;6.356;2023-03-03T02:26:15;114.47;;;50.30;;
10295;SDS011;5193;51.032;6.356;2023-03-03T02:28:43;111.60;;;48.03;;
10295;SDS011;5193;51.032;6.356;2023-03-03T02:31:13;106.90;;;45.23;;
10295;SDS011;5193;51.032;6.356;2023-03-03T02:33:41;120.77;;;50.97;;
10295;SDS011;5193;51.032;6.356;2023-03-03T02:36:41;108.83;;;47.30;;
10295;SDS011;5193;51.032;6.356;2023-03-03T02:41:54;110.77;;;47.07;;
10295;SDS011;5193;51.032;6.356;2023-03-03T02:44:27;113.47;;;47.63;;
10295;SDS011;5193;51.032;6.356;2023-03-03T02:46:54;96.40;;;41.27;;
10295;SDS011;5193;51.032;6.356;2023-03-03T02:49:21;116.13;;;48.57;;
10295;SDS011;5193;51.032;6.356;2023-03-03T02:51:49;102.37;;;41.50;;
10295;SDS011;5193;51.032;6.356;2023-03-03T02:54:15;107.73;;;45.73;;
10295;SDS011;5193;51.032;6.356;2023-03-03T02:56:42;104.23;;;46.07;;
10295;SDS011;5193;51.032;6.356;2023-03-03T02:59:08;107.60;;;45.13;;
10295;SDS011;5193;51.032;6.356;2023-03-03T03:01:34;113.53;;;46.97;;
10295;SDS011;5193;51.032;6.356;2023-03-03T03:04:10;98.33;;;43.33;;
10295;SDS011;5193;51.032;6.356;2023-03-03T03:06:37;114.37;;;46.97;;
10295;SDS011;5193;51.032;6.356;2023-03-03T03:09:04;110.67;;;46.53;;
10295;SDS011;5193;51.032;6.356;2023-03-03T03:11:31;103.93;;;46.70;;
10295;SDS011;5193;51.032;6.356;2023-03-03T03:13:56;103.03;;;45.97;;
10295;SDS011;5193;51.032;6.356;2023-03-03T03:16:22;114.17;;;45.90;;
10295;SDS011;5193;51.032;6.356;2023-03-03T03:18:48;104.27;;;44.60;;
10295;SDS011;5193;51.032;6.356;2023-03-03T03:21:15;101.17;;;44.00;;
10295;SDS011;5193;51.032;6.356;2023-03-03T03:23:41;96.13;;;42.43;;
10295;SDS011;5193;51.032;6.356;2023-03-03T03:26:06;96.23;;;42.80;;
10295;SDS011;5193;51.032;6.356;2023-03-03T03:28:32;98.73;;;44.50;;
10295;SDS011;5193;51.032;6.356;2023-03-03T03:30:58;106.03;;;45.50;;
10295;SDS011;5193;51.032;6.356;2023-03-03T03:33:24;96.90;;;42.73;;
10295;SDS011;5193;51.032;6.356;2023-03-03T03:35:52;101.43;;;43.30;;
10295;SDS011;5193;51.032;6.356;2023-03-03T03:38:19;104.67;;;45.33;;
10295;SDS011;5193;51.032;6.356;2023-03-03T03:40:45;100.80;;;44.30;;
10295;SDS011;5193;51.032;6.356;2023-03-03T03:43:11;112.17;;;49.67;;
10295;SDS011;5193;51.032;6.356;2023-03-03T03:45:36;106.87;;;53.50;;
10295;SDS011;5193;51.032;6.356;2023-03-03T03:48:02;93.00;;;40.10;;
10295;SDS011;5193;51.032;6.356;2023-03-03T03:50:28;106.07;;;47.63;;
10295;SDS011;5193;51.032;6.356;2023-03-03T03:52:53;95.17;;;43.90;;
10295;SDS011;5193;51.032;6.356;2023-03-03T03:55:19;96.57;;;43.60;;
10295;SDS011;5193;51.032;6.356;2023-03-03T03:57:46;95.67;;;41.83;;
10295;SDS011;5193;51.032;6.356;2023-03-03T04:00:12;86.13;;;40.37;;
10295;SDS011;5193;51.032;6.356;2023-03-03T04:02:38;97.47;;;44.87;;
10295;SDS011;5193;51.032;6.356;2023-03-03T04:05:04;98.30;;;45.57;;
10295;SDS011;5193;51.032;6.356;2023-03-03T04:07:30;97.13;;;44.40;;
10295;SDS011;5193;51.032;6.356;2023-03-03T04:09:55;101.17;;;46.83;;
10295;SDS011;5193;51.032;6.356;2023-03-03T04:12:21;103.17;;;48.90;;
10295;SDS011;5193;51.032;6.356;2023-03-03T04:14:46;108.07;;;46.70;;
10295;SDS011;5193;51.032;6.356;2023-03-03T04:17:16;96.37;;;41.93;;
10295;SDS011;5193;51.032;6.356;2023-03-03T04:19:43;99.90;;;44.67;;
10295;SDS011;5193;51.032;6.356;2023-03-03T04:22:08;99.80;;;43.43;;
10295;SDS011;5193;51.032;6.356;2023-03-03T04:24:34;90.77;;;42.10;;
10295;SDS011;5193;51.032;6.356;2023-03-03T04:27:00;95.93;;;39.63;;
10295;SDS011;5193;51.032;6.356;2023-03-03T04:29:25;94.27;;;42.40;;
10295;SDS011;5193;51.032;6.356;2023-03-03T04:31:51;100.17;;;45.80;;
10295;SDS011;5193;51.032;6.356;2023-03-03T04:34:16;90.53;;;42.47;;
10295;SDS011;5193;51.032;6.356;2023-03-03T04:36:42;103.07;;;47.37;;
10295;SDS011;5193;51.032;6.356;2023-03-03T04:39:07;90.47;;;38.37;;
10295;SDS011;5193;51.032;6.356;2023-03-03T04:41:33;80.27;;;36.50;;
10295;SDS011;5193;51.032;6.356;2023-03-03T04:43:59;93.97;;;40.07;;
10295;SDS011;5193;51.032;6.356;2023-03-03T04:46:24;93.37;;;44.43;;
10295;SDS011;5193;51.032;6.356;2023-03-03T04:48:50;99.87;;;44.23;;
10295;SDS011;5193;51.032;6.356;2023-03-03T04:51:16;84.80;;;40.20;;
10295;SDS011;5193;51.032;6.356;2023-03-03T04:53:42;88.27;;;40.33;;
10295;SDS011;5193;51.032;6.356;2023-03-03T04:56:08;89.73;;;38.00;;
10295;SDS011;5193;51.032;6.356;2023-03-03T04:58:34;98.43;;;41.10;;
10295;SDS011;5193;51.032;6.356;2023-03-03T05:00:59;100.37;;;45.60;;
10295;SDS011;5193;51.032;6.356;2023-03-03T05:03:25;97.10;;;44.17;;
10295;SDS011;5193;51.032;6.356;2023-03-03T05:05:51;99.70;;;47.83;;
10295;SDS011;5193;51.032;6.356;2023-03-03T05:08:17;100.30;;;43.67;;
10295;SDS011;5193;51.032;6.356;2023-03-03T05:10:43;88.57;;;36.70;;
10295;SDS011;5193;51.032;6.356;2023-03-03T05:13:09;88.10;;;40.40;;
10295;SDS011;5193;51.032;6.356;2023-03-03T05:15:35;93.67;;;39.73;;
10295;SDS011;5193;51.032;6.356;2023-03-03T05:18:01;83.13;;;34.93;;
10295;SDS011;5193;51.032;6.356;2023-03-03T05:20:26;73.83;;;31.13;;
10295;SDS011;5193;51.032;6.356;2023-03-03T05:22:52;95.20;;;42.73;;
10295;SDS011;5193;51.032;6.356;2023-03-03T05:25:20;92.67;;;39.40;;
10295;SDS011;5193;51.032;6.356;2023-03-03T05:27:46;92.90;;;40.70;;
10295;SDS011;5193;51.032;6.356;2023-03-03T05:30:11;89.60;;;38.27;;
10295;SDS011;5193;51.032;6.356;2023-03-03T05:32:37;91.77;;;40.63;;
10295;SDS011;5193;51.032;6.356;2023-03-03T05:35:03;93.97;;;41.07;;
10295;SDS011;5193;51.032;6.356;2023-03-03T05:37:29;103.13;;;44.40;;
10295;SDS011;5193;51.032;6.356;2023-03-03T05:39:55;104.07;;;44.47;;
10295;SDS011;5193;51.032;6.356;2023-03-03T05:42:21;94.63;;;41.93;;
10295;SDS011;5193;51.032;6.356;2023-03-03T05:44:46;101.80;;;44.53;;
10295;SDS011;5193;51.032;6.356;2023-03-03T05:47:12;99.03;;;38.97;;
10295;SDS011;5193;51.032;6.356;2023-03-03T05:49:37;91.27;;;40.47;;
10295;SDS011;5193;51.032;6.356;2023-03-03T05:52:03;90.10;;;40.20;;
10295;SDS011;5193;51.032;6.356;2023-03-03T05:54:29;91.00;;;38.60;;
10295;SDS011;5193;51.032;6.356;2023-03-03T05:56:55;99.10;;;40.57;;
10295;SDS011;5193;51.032;6.356;2023-03-03T05:59:21;98.37;;;42.67;;
10295;SDS011;5193;51.032;6.356;2023-03-03T06:01:47;90.17;;;39.43;;
10295;SDS011;5193;51.032;6.356;2023-03-03T06:04:13;88.93;;;39.33;;
10295;SDS011;5193;51.032;6.356;2023-03-03T06:06:38;92.10;;;37.80;;
10295;SDS011;5193;51.032;6.356;2023-03-03T06:09:04;104.50;;;42.57;;
10295;SDS011;5193;51.032;6.356;2023-03-03T06:11:30;95.10;;;41.27;;
10295;SDS011;5193;51.032;6.356;2023-03-03T06:13:56;99.67;;;40.33;;
10295;SDS011;5193;51.032;6.356;2023-03-03T06:16:21;98.50;;;41.33;;
10295;SDS011;5193;51.032;6.356;2023-03-03T06:18:47;89.03;;;35.57;;
10295;SDS011;5193;51.032;6.356;2023-03-03T06:21:12;103.23;;;40.03;;
10295;SDS011;5193;51.032;6.356;2023-03-03T06:23:38;98.97;;;42.00;;
10295;SDS011;5193;51.032;6.356;2023-03-03T06:26:03;99.27;;;41.80;;
10295;SDS011;5193;51.032;6.356;2023-03-03T06:28:29;95.50;;;41.57;;
10295;SDS011;5193;51.032;6.356;2023-03-03T06:30:55;86.83;;;37.20;;
10295;SDS011;5193;51.032;6.356;2023-03-03T06:33:21;98.23;;;40.73;;
10295;SDS011;5193;51.032;6.356;2023-03-03T06:35:50;85.10;;;38.30;;
10295;SDS011;5193;51.032;6.356;2023-03-03T06:38:16;80.87;;;35.83;;
10295;SDS011;5193;51.032;6.356;2023-03-03T06:40:43;85.37;;;36.07;;
10295;SDS011;5193;51.032;6.356;2023-03-03T06:43:09;98.67;;;42.73;;
10295;SDS011;5193;51.032;6.356;2023-03-03T06:45:34;92.00;;;39.73;;
10295;SDS011;5193;51.032;6.356;2023-03-03T06:48:00;97.10;;;40.63;;
10295;SDS011;5193;51.032;6.356;2023-03-03T06:50:26;88.63;;;39.17;;
10295;SDS011;5193;51.032;6.356;2023-03-03T06:52:55;94.60;;;41.03;;
10295;SDS011;5193;51.032;6.356;2023-03-03T06:55:29;87.90;;;37.10;;
10295;SDS011;5193;51.032;6.356;2023-03-03T06:57:54;100.00;;;41.00;;
10295;SDS011;5193;51.032;6.356;2023-03-03T07:00:24;93.60;;;39.90;;
10295;SDS011;5193;51.032;6.356;2023-03-03T07:03:03;91.57;;;41.30;;
10295;SDS011;5193;51.032;6.356;2023-03-03T07:05:32;89.40;;;40.37;;
10295;SDS011;5193;51.032;6.356;2023-03-03T07:07:58;91.23;;;41.03;;
10295;SDS011;5193;51.032;6.356;2023-03-03T07:10:25;96.30;;;40.10;;
10295;SDS011;5193;51.032;6.356;2023-03-03T07:12:52;98.50;;;41.47;;
10295;SDS011;5193;51.032;6.356;2023-03-03T07:15:21;90.70;;;39.70;;
10295;SDS011;5193;51.032;6.356;2023-03-03T07:17:58;67.80;;;30.93;;
10295;SDS011;5193;51.032;6.356;2023-03-03T07:20:39;94.23;;;36.97;;
10295;SDS011;5193;51.032;6.356;2023-03-03T07:25:51;92.20;;;39.57;;
10295;SDS011;5193;51.032;6.356;2023-03-03T07:28:24;89.37;;;38.37;;
10295;SDS011;5193;51.032;6.356;2023-03-03T07:30:52;90.33;;;40.53;;
10295;SDS011;5193;51.032;6.356;2023-03-03T07:35:56;85.40;;;38.50;;
10295;SDS011;5193;51.032;6.356;2023-03-03T07:38:30;89.90;;;39.43;;
10295;SDS011;5193;51.032;6.356;2023-03-03T07:40:58;96.47;;;42.17;;
10295;SDS011;5193;51.032;6.356;2023-03-03T07:43:34;99.83;;;40.23;;
10295;SDS011;5193;51.032;6.356;2023-03-03T07:48:51;93.20;;;39.10;;
10295;SDS011;5193;51.032;6.356;2023-03-03T07:53:46;81.93;;;35.63;;
10295;SDS011;5193;51.032;6.356;2023-03-03T07:56:16;74.47;;;32.20;;
10295;SDS011;5193;51.032;6.356;2023-03-03T07:58:47;81.23;;;35.43;;
10295;SDS011;5193;51.032;6.356;2023-03-03T08:01:27;78.67;;;33.97;;
10295;SDS011;5193;51.032;6.356;2023-03-03T08:03:59;85.33;;;37.83;;
10295;SDS011;5193;51.032;6.356;2023-03-03T08:11:34;81.83;;;34.83;;
10295;SDS011;5193;51.032;6.356;2023-03-03T08:14:04;82.27;;;37.83;;
10295;SDS011;5193;51.032;6.356;2023-03-03T08:16:37;71.47;;;31.37;;
10295;SDS011;5193;51.032;6.356;2023-03-03T08:19:02;77.50;;;35.50;;
10295;SDS011;5193;51.032;6.356;2023-03-03T08:21:29;75.77;;;33.70;;
10295;SDS011;5193;51.032;6.356;2023-03-03T08:23:56;81.47;;;34.63;;
10295;SDS011;5193;51.032;6.356;2023-03-03T08:26:22;84.07;;;36.57;;
10295;SDS011;5193;51.032;6.356;2023-03-03T08:28:49;95.03;;;39.40;;
10295;SDS011;5193;51.032;6.356;2023-03-03T08:31:15;87.67;;;38.60;;
10295;SDS011;5193;51.032;6.356;2023-03-03T08:33:41;80.57;;;37.13;;
10295;SDS011;5193;51.032;6.356;2023-03-03T08:36:08;89.90;;;40.50;;
10295;SDS011;5193;51.032;6.356;2023-03-03T08:38:33;93.90;;;35.90;;
10295;SDS011;5193;51.032;6.356;2023-03-03T08:40:59;89.00;;;38.03;;
10295;SDS011;5193;51.032;6.356;2023-03-03T08:43:25;77.03;;;34.97;;
10295;SDS011;5193;51.032;6.356;2023-03-03T08:45:52;78.40;;;34.07;;
10295;SDS011;5193;51.032;6.356;2023-03-03T08:48:22;65.30;;;29.27;;
10295;SDS011;5193;51.032;6.356;2023-03-03T08:50:47;67.97;;;31.63;;
10295;SDS011;5193;51.032;6.356;2023-03-03T08:53:13;95.43;;;42.70;;
10295;SDS011;5193;51.032;6.356;2023-03-03T08:55:39;93.33;;;38.87;;
10295;SDS011;5193;51.032;6.356;2023-03-03T08:58:05;81.10;;;34.27;;
10295;SDS011;5193;51.032;6.356;2023-03-03T09:00:31;72.47;;;33.30;;
10295;SDS011;5193;51.032;6.356;2023-03-03T09:02:56;77.07;;;32.50;;
10295;SDS011;5193;51.032;6.356;2023-03-03T09:05:22;74.50;;;33.27;;
10295;SDS011;5193;51.032;6.356;2023-03-03T09:07:49;75.10;;;32.00;;
10295;SDS011;5193;51.032;6.356;2023-03-03T09:10:20;78.13;;;32.63;;
10295;SDS011;5193;51.032;6.356;2023-03-03T09:12:51;85.63;;;37.23;;
10295;SDS011;5193;51.032;6.356;2023-03-03T09:15:25;96.70;;;36.77;;
10295;SDS011;5193;51.032;6.356;2023-03-03T09:17:53;90.63;;;38.83;;
10295;SDS011;5193;51.032;6.356;2023-03-03T09:20:23;94.90;;;42.00;;
10295;SDS011;5193;51.032;6.356;2023-03-03T09:22:49;99.90;;;41.03;;
10295;SDS011;5193;51.032;6.356;2023-03-03T09:25:24;93.17;;;41.33;;
10295;SDS011;5193;51.032;6.356;2023-03-03T09:28:01;105.37;;;45.63;;
10295;SDS011;5193;51.032;6.356;2023-03-03T09:33:01;97.53;;;40.63;;
10295;SDS011;5193;51.032;6.356;2023-03-03T09:35:46;95.50;;;41.37;;
10295;SDS011;5193;51.032;6.356;2023-03-03T09:38:24;105.50;;;40.77;;
10295;SDS011;5193;51.032;6.356;2023-03-03T09:40:53;108.37;;;43.80;;
10295;SDS011;5193;51.032;6.356;2023-03-03T09:43:29;103.60;;;42.93;;
10295;SDS011;5193;51.032;6.356;2023-03-03T09:56:49;103.17;;;43.93;;
10295;SDS011;5193;51.032;6.356;2023-03-03T09:59:32;115.90;;;49.87;;
10295;SDS011;5193;51.032;6.356;2023-03-03T10:02:07;92.60;;;41.67;;
10295;SDS011;5193;51.032;6.356;2023-03-03T10:07:32;107.50;;;47.77;;
10295;SDS011;5193;51.032;6.356;2023-03-03T10:13:03;105.83;;;42.60;;
10295;SDS011;5193;51.032;6.356;2023-03-03T10:18:34;96.87;;;45.23;;
10295;SDS011;5193;51.032;6.356;2023-03-03T10:21:07;106.10;;;47.27;;
10295;SDS011;5193;51.032;6.356;2023-03-03T10:29:20;113.00;;;49.00;;
10295;SDS011;5193;51.032;6.356;2023-03-03T10:37:50;112.00;;;50.20;;
10295;SDS011;5193;51.032;6.356;2023-03-03T10:40:49;106.30;;;46.53;;
10295;SDS011;5193;51.032;6.356;2023-03-03T10:46:33;104.17;;;44.87;;
10295;SDS011;5193;51.032;6.356;2023-03-03T10:49:13;112.13;;;48.23;;
10295;SDS011;5193;51.032;6.356;2023-03-03T10:54:49;97.03;;;43.13;;
10295;SDS011;5193;51.032;6.356;2023-03-03T10:57:32;102.93;;;44.90;;
10295;SDS011;5193;51.032;6.356;2023-03-03T11:00:23;104.73;;;46.00;;
10295;SDS011;5193;51.032;6.356;2023-03-03T11:03:19;95.13;;;43.50;;
10295;SDS011;5193;51.032;6.356;2023-03-03T11:05:54;107.13;;;46.37;;
10295;SDS011;5193;51.032;6.356;2023-03-03T11:08:35;89.97;;;43.13;;
10295;SDS011;5193;51.032;6.356;2023-03-03T11:20:05;98.03;;;39.30;;
10295;SDS011;5193;51.032;6.356;2023-03-03T11:23:02;98.80;;;43.20;;
10295;SDS011;5193;51.032;6.356;2023-03-03T11:28:46;114.50;;;49.23;;
10295;SDS011;5193;51.032;6.356;2023-03-03T11:33:52;101.80;;;49.80;;
10295;SDS011;5193;51.032;6.356;2023-03-03T11:36:27;105.70;;;49.13;;
10295;SDS011;5193;51.032;6.356;2023-03-03T11:38:59;113.13;;;49.97;;
10295;SDS011;5193;51.032;6.356;2023-03-03T11:41:29;107.87;;;49.47;;
10295;SDS011;5193;51.032;6.356;2023-03-03T11:44:14;109.73;;;50.63;;
10295;SDS011;5193;51.032;6.356;2023-03-03T11:49:22;108.50;;;47.00;;
10295;SDS011;5193;51.032;6.356;2023-03-03T11:52:39;110.03;;;48.23;;
10295;SDS011;5193;51.032;6.356;2023-03-03T11:55:37;117.27;;;52.63;;
10295;SDS011;5193;51.032;6.356;2023-03-03T12:05:53;108.90;;;47.53;;
10295;SDS011;5193;51.032;6.356;2023-03-03T12:08:37;107.57;;;48.43;;
10295;SDS011;5193;51.032;6.356;2023-03-03T12:14:12;102.07;;;44.97;;
10295;SDS011;5193;51.032;6.356;2023-03-03T12:17:00;92.10;;;43.77;;
10295;SDS011;5193;51.032;6.356;2023-03-03T12:19:36;94.63;;;45.90;;
10295;SDS011;5193;51.032;6.356;2023-03-03T12:22:30;86.97;;;42.00;;
10295;SDS011;5193;51.032;6.356;2023-03-03T12:27:57;95.37;;;43.03;;
10295;SDS011;5193;51.032;6.356;2023-03-03T12:35:53;91.87;;;43.83;;
10295;SDS011;5193;51.032;6.356;2023-03-03T12:41:06;94.10;;;42.80;;
10295;SDS011;5193;51.032;6.356;2023-03-03T12:46:26;96.47;;;44.73;;
10295;SDS011;5193;51.032;6.356;2023-03-03T12:48:53;94.03;;;45.87;;
10295;SDS011;5193;51.032;6.356;2023-03-03T12:56:37;107.00;;;49.93;;
10295;SDS011;5193;51.032;6.356;2023-03-03T13:07:40;103.73;;;47.47;;
10295;SDS011;5193;51.032;6.356;2023-03-03T13:10:19;108.17;;;48.63;;
10295;SDS011;5193;51.032;6.356;2023-03-03T13:12:57;103.90;;;47.97;;
10295;SDS011;5193;51.032;6.356;2023-03-03T13:15:52;102.37;;;49.90;;
10295;SDS011;5193;51.032;6.356;2023-03-03T13:18:35;103.53;;;48.97;;
10295;SDS011;5193;51.032;6.356;2023-03-03T13:21:22;96.43;;;47.03;;
10295;SDS011;5193;51.032;6.356;2023-03-03T13:24:30;109.97;;;47.17;;
10295;SDS011;5193;51.032;6.356;2023-03-03T13:26:55;106.43;;;48.20;;
10295;SDS011;5193;51.032;6.356;2023-03-03T13:29:41;109.03;;;47.63;;
10295;SDS011;5193;51.032;6.356;2023-03-03T13:32:38;95.50;;;46.03;;
10295;SDS011;5193;51.032;6.356;2023-03-03T13:38:12;92.80;;;43.93;;
10295;SDS011;5193;51.032;6.356;2023-03-03T13:40:45;95.93;;;44.37;;
10295;SDS011;5193;51.032;6.356;2023-03-03T13:45:57;102.17;;;46.03;;
10295;SDS011;5193;51.032;6.356;2023-03-03T13:51:18;90.80;;;44.43;;
10295;SDS011;5193;51.032;6.356;2023-03-03T13:53:59;98.33;;;45.97;;
10295;SDS011;5193;51.032;6.356;2023-03-03T13:56:34;101.00;;;46.53;;
10295;SDS011;5193;51.032;6.356;2023-03-03T14:01:53;104.53;;;46.23;;
10295;SDS011;5193;51.032;6.356;2023-03-03T14:07:02;108.13;;;49.67;;
10295;SDS011;5193;51.032;6.356;2023-03-03T14:09:50;103.93;;;49.40;;
10295;SDS011;5193;51.032;6.356;2023-03-03T14:21:18;100.30;;;46.90;;
10295;SDS011;5193;51.032;6.356;2023-03-03T14:24:02;91.43;;;44.60;;
10295;SDS011;5193;51.032;6.356;2023-03-03T14:26:45;97.33;;;44.90;;
10295;SDS011;5193;51.032;6.356;2023-03-03T14:31:51;93.40;;;45.70;;
10295;SDS011;5193;51.032;6.356;2023-03-03T14:36:47;96.77;;;43.27;;
10295;SDS011;5193;51.032;6.356;2023-03-03T14:39:25;93.50;;;44.80;;
10295;SDS011;5193;51.032;6.356;2023-03-03T14:41:53;90.77;;;43.83;;
10295;SDS011;5193;51.032;6.356;2023-03-03T14:44:28;95.27;;;42.73;;
10295;SDS011;5193;51.032;6.356;2023-03-03T14:47:37;89.07;;;43.40;;
10295;SDS011;5193;51.032;6.356;2023-03-03T14:49:46;94.30;;;44.93;;
10295;SDS011;5193;51.032;6.356;2023-03-03T14:54:41;106.20;;;47.00;;
10295;SDS011;5193;51.032;6.356;2023-03-03T15:02:42;79.90;;;38.67;;
10295;SDS011;5193;51.032;6.356;2023-03-03T15:05:25;82.07;;;40.00;;
10295;SDS011;5193;51.032;6.356;2023-03-03T15:10:43;83.63;;;41.73;;
10295;SDS011;5193;51.032;6.356;2023-03-03T15:15:51;85.07;;;40.33;;
10295;SDS011;5193;51.032;6.356;2023-03-03T15:18:25;89.23;;;42.90;;
10295;SDS011;5193;51.032;6.356;2023-03-03T15:29:16;77.87;;;41.63;;
10295;SDS011;5193;51.032;6.356;2023-03-03T15:34:50;80.83;;;42.43;;
10295;SDS011;5193;51.032;6.356;2023-03-03T15:53:59;73.33;;;41.40;;
10295;SDS011;5193;51.032;6.356;2023-03-03T15:56:47;74.83;;;41.27;;
10295;SDS011;5193;51.032;6.356;2023-03-03T16:02:21;71.27;;;39.60;;
10295;SDS011;5193;51.032;6.356;2023-03-03T16:07:29;71.30;;;38.10;;
10295;SDS011;5193;51.032;6.356;2023-03-03T16:10:06;68.60;;;36.70;;
10295;SDS011;5193;51.032;6.356;2023-03-03T16:13:13;64.00;;;36.60;;
10295;SDS011;5193;51.032;6.356;2023-03-03T16:16:08;70.83;;;37.27;;
10295;SDS011;5193;51.032;6.356;2023-03-03T16:27:15;67.27;;;36.53;;
10295;SDS011;5193;51.032;6.356;2023-03-03T16:29:53;61.13;;;34.30;;
10295;SDS011;5193;51.032;6.356;2023-03-03T16:32:48;60.57;;;34.90;;
10295;SDS011;5193;51.032;6.356;2023-03-03T16:35:21;55.90;;;32.10;;
10295;SDS011;5193;51.032;6.356;2023-03-03T16:38:14;61.57;;;32.87;;
10295;SDS011;5193;51.032;6.356;2023-03-03T16:41:02;55.53;;;31.93;;
10295;SDS011;5193;51.032;6.356;2023-03-03T16:43:42;56.83;;;32.17;;
10295;SDS011;5193;51.032;6.356;2023-03-03T16:46:45;57.57;;;31.60;;
10295;SDS011;5193;51.032;6.356;2023-03-03T16:49:16;55.37;;;31.20;;
10295;SDS011;5193;51.032;6.356;2023-03-03T16:52:11;61.57;;;31.90;;
10295;SDS011;5193;51.032;6.356;2023-03-03T17:00:13;54.17;;;30.20;;
10295;SDS011;5193;51.032;6.356;2023-03-03T17:02:56;51.87;;;28.07;;
10295;SDS011;5193;51.032;6.356;2023-03-03T17:05:27;55.37;;;31.00;;
10295;SDS011;5193;51.032;6.356;2023-03-03T17:16:50;55.03;;;29.53;;
10295;SDS011;5193;51.032;6.356;2023-03-03T17:19:36;49.83;;;29.17;;
10295;SDS011;5193;51.032;6.356;2023-03-03T17:22:25;51.57;;;28.83;;
10295;SDS011;5193;51.032;6.356;2023-03-03T17:28:03;49.17;;;26.60;;
10295;SDS011;5193;51.032;6.356;2023-03-03T17:31:00;48.20;;;27.23;;
10295;SDS011;5193;51.032;6.356;2023-03-03T17:36:19;49.43;;;26.80;;
10295;SDS011;5193;51.032;6.356;2023-03-03T17:41:20;53.63;;;27.10;;
10295;SDS011;5193;51.032;6.356;2023-03-03T17:46:58;59.77;;;28.43;;
10295;SDS011;5193;51.032;6.356;2023-03-03T17:52:25;57.80;;;29.57;;
10295;SDS011;5193;51.032;6.356;2023-03-03T17:55:23;59.93;;;31.03;;
10295;SDS011;5193;51.032;6.356;2023-03-03T18:00:47;56.23;;;28.63;;
10295;SDS011;5193;51.032;6.356;2023-03-03T18:03:36;58.93;;;27.90;;
10295;SDS011;5193;51.032;6.356;2023-03-03T18:12:24;56.50;;;26.43;;
10295;SDS011;5193;51.032;6.356;2023-03-03T18:18:08;55.30;;;27.50;;
10295;SDS011;5193;51.032;6.356;2023-03-03T18:20:53;56.17;;;28.93;;
10295;SDS011;5193;51.032;6.356;2023-03-03T18:26:28;59.20;;;28.70;;
10295;SDS011;5193;51.032;6.356;2023-03-03T18:29:18;68.90;;;32.17;;
10295;SDS011;5193;51.032;6.356;2023-03-03T18:44:41;64.70;;;29.87;;
10295;SDS011;5193;51.032;6.356;2023-03-03T18:47:08;59.83;;;30.03;;
10295;SDS011;5193;51.032;6.356;2023-03-03T18:49:48;79.80;;;35.80;;
10295;SDS011;5193;51.032;6.356;2023-03-03T18:52:16;77.77;;;36.73;;
10295;SDS011;5193;51.032;6.356;2023-03-03T18:54:57;72.40;;;33.23;;
10295;SDS011;5193;51.032;6.356;2023-03-03T18:57:26;69.60;;;32.97;;
10295;SDS011;5193;51.032;6.356;2023-03-03T18:59:53;111.63;;;46.27;;
10295;SDS011;5193;51.032;6.356;2023-03-03T19:02:32;69.97;;;33.30;;
10295;SDS011;5193;51.032;6.356;2023-03-03T19:05:07;76.80;;;35.37;;
10295;SDS011;5193;51.032;6.356;2023-03-03T19:34:39;54.63;;;24.67;;
10295;SDS011;5193;51.032;6.356;2023-03-03T19:49:03;63.73;;;28.40;;
10295;SDS011;5193;51.032;6.356;2023-03-03T19:57:39;52.67;;;23.70;;
10295;SDS011;5193;51.032;6.356;2023-03-03T20:00:34;54.53;;;24.13;;
10295;SDS011;5193;51.032;6.356;2023-03-03T20:14:25;54.00;;;24.77;;
10295;SDS011;5193;51.032;6.356;2023-03-03T20:17:23;56.37;;;25.57;;
10295;SDS011;5193;51.032;6.356;2023-03-03T20:22:51;58.53;;;25.53;;
10295;SDS011;5193;51.032;6.356;2023-03-03T20:25:28;57.73;;;24.00;;
10295;SDS011;5193;51.032;6.356;2023-03-03T20:37:17;55.30;;;25.23;;